sensor_id;sensor_type;location;lat;lon;timestamp;pressure;altitude;pressure_sealevel;temperature
68012;BMP180;54794;48.348;7.878;2023-05-17T00:00:37;99492.00;;;10.60
68012;BMP180;54794;48.348;7.878;2023-05-17T00:03:04;99491.00;;;10.60
68012;BMP180;54794;48.348;7.878;2023-05-17T00:05:31;99491.00;;;10.50
68012;BMP180;54794;48.348;7.878;2023-05-17T00:07:58;99494.00;;;10.60
68012;BMP180;54794;48.348;7.878;2023-05-17T00:10:25;99504.00;;;10.60
68012;BMP180;54794;48.348;7.878;2023-05-17T00:12:52;99502.00;;;10.70
68012;BMP180;54794;48.348;7.878;2023-05-17T00:15:19;99497.00;;;10.80
68012;BMP180;54794;48.348;7.878;2023-05-17T00:17:46;99505.00;;;10.60
68012;BMP180;54794;48.348;7.878;2023-05-17T00:20:14;99499.00;;;10.60
68012;BMP180;54794;48.348;7.878;2023-05-17T00:22:40;99504.00;;;10.70
68012;BMP180;54794;48.348;7.878;2023-05-17T00:25:09;99505.00;;;10.60
68012;BMP180;54794;48.348;7.878;2023-05-17T00:27:36;99509.00;;;10.60
68012;BMP180;54794;48.348;7.878;2023-05-17T00:30:04;99504.00;;;10.60
68012;BMP180;54794;48.348;7.878;2023-05-17T00:32:31;99515.00;;;10.40
68012;BMP180;54794;48.348;7.878;2023-05-17T00:34:58;99508.00;;;10.50
68012;BMP180;54794;48.348;7.878;2023-05-17T00:37:25;99515.00;;;10.50
68012;BMP180;54794;48.348;7.878;2023-05-17T00:39:52;99507.00;;;10.40
68012;BMP180;54794;48.348;7.878;2023-05-17T00:42:19;99514.00;;;10.40
68012;BMP180;54794;48.348;7.878;2023-05-17T00:44:47;99526.00;;;10.40
68012;BMP180;54794;48.348;7.878;2023-05-17T00:47:15;99515.00;;;10.40
68012;BMP180;54794;48.348;7.878;2023-05-17T00:49:42;99524.00;;;10.50
68012;BMP180;54794;48.348;7.878;2023-05-17T00:52:10;99509.00;;;10.30
68012;BMP180;54794;48.348;7.878;2023-05-17T00:54:38;99514.00;;;10.20
68012;BMP180;54794;48.348;7.878;2023-05-17T00:57:06;99515.00;;;10.20
68012;BMP180;54794;48.348;7.878;2023-05-17T00:59:33;99513.00;;;10.30
68012;BMP180;54794;48.348;7.878;2023-05-17T01:02:00;99513.00;;;10.20
68012;BMP180;54794;48.348;7.878;2023-05-17T01:04:28;99513.00;;;10.20
68012;BMP180;54794;48.348;7.878;2023-05-17T01:06:56;99518.00;;;9.90
68012;BMP180;54794;48.348;7.878;2023-05-17T01:09:23;99509.00;;;10.20
68012;BMP180;54794;48.348;7.878;2023-05-17T01:18:29;99534.00;;;10.20
68012;BMP180;54794;48.348;7.878;2023-05-17T01:21:11;99525.00;;;9.80
68012;BMP180;54794;48.348;7.878;2023-05-17T01:24:01;99535.00;;;10.10
68012;BMP180;54794;48.348;7.878;2023-05-17T01:26:48;99530.00;;;10.30
68012;BMP180;54794;48.348;7.878;2023-05-17T01:29:27;99533.00;;;10.20
68012;BMP180;54794;48.348;7.878;2023-05-17T01:31:56;99526.00;;;9.90
68012;BMP180;54794;48.348;7.878;2023-05-17T01:34:26;99539.00;;;9.90
68012;BMP180;54794;48.348;7.878;2023-05-17T01:36:53;99531.00;;;10.20
68012;BMP180;54794;48.348;7.878;2023-05-17T01:39:20;99528.00;;;10.10
68012;BMP180;54794;48.348;7.878;2023-05-17T01:42:03;99528.00;;;10.10
68012;BMP180;54794;48.348;7.878;2023-05-17T01:45:05;99534.00;;;10.20
68012;BMP180;54794;48.348;7.878;2023-05-17T01:50:37;99541.00;;;10.10
68012;BMP180;54794;48.348;7.878;2023-05-17T01:53:10;99530.00;;;10.10
68012;BMP180;54794;48.348;7.878;2023-05-17T01:55:53;99544.00;;;10.00
68012;BMP180;54794;48.348;7.878;2023-05-17T01:58:24;99532.00;;;10.00
68012;BMP180;54794;48.348;7.878;2023-05-17T02:00:54;99535.00;;;10.00
68012;BMP180;54794;48.348;7.878;2023-05-17T02:03:22;99540.00;;;10.10
68012;BMP180;54794;48.348;7.878;2023-05-17T02:05:50;99539.00;;;10.00
68012;BMP180;54794;48.348;7.878;2023-05-17T02:08:17;99536.00;;;10.10
68012;BMP180;54794;48.348;7.878;2023-05-17T02:10:44;99538.00;;;9.90
68012;BMP180;54794;48.348;7.878;2023-05-17T02:13:11;99539.00;;;9.80
68012;BMP180;54794;48.348;7.878;2023-05-17T02:15:38;99540.00;;;9.90
68012;BMP180;54794;48.348;7.878;2023-05-17T02:18:06;99540.00;;;10.00
68012;BMP180;54794;48.348;7.878;2023-05-17T02:20:34;99538.00;;;10.00
68012;BMP180;54794;48.348;7.878;2023-05-17T02:23:01;99549.00;;;10.00
68012;BMP180;54794;48.348;7.878;2023-05-17T02:25:28;99548.00;;;9.90
68012;BMP180;54794;48.348;7.878;2023-05-17T02:27:55;99553.00;;;9.90
68012;BMP180;54794;48.348;7.878;2023-05-17T02:30:22;99545.00;;;9.80
68012;BMP180;54794;48.348;7.878;2023-05-17T02:32:50;99551.00;;;10.00
68012;BMP180;54794;48.348;7.878;2023-05-17T02:35:18;99548.00;;;9.70
68012;BMP180;54794;48.348;7.878;2023-05-17T02:37:45;99544.00;;;9.80
68012;BMP180;54794;48.348;7.878;2023-05-17T02:40:12;99554.00;;;9.90
68012;BMP180;54794;48.348;7.878;2023-05-17T02:42:40;99552.00;;;9.90
68012;BMP180;54794;48.348;7.878;2023-05-17T02:45:07;99569.00;;;9.60
68012;BMP180;54794;48.348;7.878;2023-05-17T02:47:34;99570.00;;;10.00
68012;BMP180;54794;48.348;7.878;2023-05-17T02:50:01;99568.00;;;9.80
68012;BMP180;54794;48.348;7.878;2023-05-17T02:52:28;99567.00;;;9.60
68012;BMP180;54794;48.348;7.878;2023-05-17T02:54:55;99556.00;;;9.70
68012;BMP180;54794;48.348;7.878;2023-05-17T02:57:25;99562.00;;;9.70
68012;BMP180;54794;48.348;7.878;2023-05-17T02:59:52;99556.00;;;9.60
68012;BMP180;54794;48.348;7.878;2023-05-17T03:02:19;99563.00;;;9.50
68012;BMP180;54794;48.348;7.878;2023-05-17T03:04:47;99570.00;;;9.40
68012;BMP180;54794;48.348;7.878;2023-05-17T03:07:14;99566.00;;;9.40
68012;BMP180;54794;48.348;7.878;2023-05-17T03:09:41;99581.00;;;9.50
68012;BMP180;54794;48.348;7.878;2023-05-17T03:12:08;99589.00;;;9.20
68012;BMP180;54794;48.348;7.878;2023-05-17T03:14:36;99576.00;;;9.20
68012;BMP180;54794;48.348;7.878;2023-05-17T03:17:03;99567.00;;;9.40
68012;BMP180;54794;48.348;7.878;2023-05-17T03:19:30;99566.00;;;9.10
68012;BMP180;54794;48.348;7.878;2023-05-17T03:21:57;99573.00;;;9.10
68012;BMP180;54794;48.348;7.878;2023-05-17T03:24:24;99583.00;;;9.10
68012;BMP180;54794;48.348;7.878;2023-05-17T03:26:51;99586.00;;;8.90
68012;BMP180;54794;48.348;7.878;2023-05-17T03:29:18;99587.00;;;9.10
68012;BMP180;54794;48.348;7.878;2023-05-17T03:31:45;99585.00;;;9.10
68012;BMP180;54794;48.348;7.878;2023-05-17T03:34:12;99587.00;;;9.00
68012;BMP180;54794;48.348;7.878;2023-05-17T03:36:39;99593.00;;;8.70
68012;BMP180;54794;48.348;7.878;2023-05-17T03:39:06;99588.00;;;8.40
68012;BMP180;54794;48.348;7.878;2023-05-17T03:41:33;99597.00;;;8.30
68012;BMP180;54794;48.348;7.878;2023-05-17T03:44:04;99593.00;;;8.40
68012;BMP180;54794;48.348;7.878;2023-05-17T03:46:41;99612.00;;;8.40
68012;BMP180;54794;48.348;7.878;2023-05-17T03:49:08;99602.00;;;8.40
68012;BMP180;54794;48.348;7.878;2023-05-17T03:51:35;99603.00;;;8.40
68012;BMP180;54794;48.348;7.878;2023-05-17T03:54:05;99609.00;;;8.40
68012;BMP180;54794;48.348;7.878;2023-05-17T03:56:39;99604.00;;;8.30
68012;BMP180;54794;48.348;7.878;2023-05-17T03:59:06;99612.00;;;8.40
68012;BMP180;54794;48.348;7.878;2023-05-17T04:01:33;99621.00;;;8.40
68012;BMP180;54794;48.348;7.878;2023-05-17T04:04:00;99615.00;;;8.60
68012;BMP180;54794;48.348;7.878;2023-05-17T04:06:30;99618.00;;;8.80
68012;BMP180;54794;48.348;7.878;2023-05-17T04:08:57;99613.00;;;8.90
68012;BMP180;54794;48.348;7.878;2023-05-17T04:11:28;99616.00;;;8.80
68012;BMP180;54794;48.348;7.878;2023-05-17T04:14:08;99625.00;;;8.80
68012;BMP180;54794;48.348;7.878;2023-05-17T04:16:53;99620.00;;;8.90
68012;BMP180;54794;48.348;7.878;2023-05-17T04:19:45;99625.00;;;9.00
68012;BMP180;54794;48.348;7.878;2023-05-17T04:22:26;99633.00;;;9.00
68012;BMP180;54794;48.348;7.878;2023-05-17T04:24:53;99644.00;;;9.10
68012;BMP180;54794;48.348;7.878;2023-05-17T04:27:26;99633.00;;;8.60
68012;BMP180;54794;48.348;7.878;2023-05-17T04:30:14;99641.00;;;8.30
68012;BMP180;54794;48.348;7.878;2023-05-17T04:32:53;99647.00;;;8.40
68012;BMP180;54794;48.348;7.878;2023-05-17T04:35:28;99650.00;;;8.60
68012;BMP180;54794;48.348;7.878;2023-05-17T04:37:59;99644.00;;;8.60
68012;BMP180;54794;48.348;7.878;2023-05-17T04:40:26;99656.00;;;9.00
68012;BMP180;54794;48.348;7.878;2023-05-17T04:42:53;99647.00;;;9.30
68012;BMP180;54794;48.348;7.878;2023-05-17T04:45:20;99652.00;;;9.00
68012;BMP180;54794;48.348;7.878;2023-05-17T04:47:47;99652.00;;;8.90
68012;BMP180;54794;48.348;7.878;2023-05-17T04:50:16;99654.00;;;8.60
68012;BMP180;54794;48.348;7.878;2023-05-17T04:53:04;99656.00;;;8.70
68012;BMP180;54794;48.348;7.878;2023-05-17T04:55:31;99658.00;;;8.90
68012;BMP180;54794;48.348;7.878;2023-05-17T04:58:16;99664.00;;;9.30
68012;BMP180;54794;48.348;7.878;2023-05-17T05:00:43;99667.00;;;9.20
68012;BMP180;54794;48.348;7.878;2023-05-17T05:03:27;99661.00;;;9.20
68012;BMP180;54794;48.348;7.878;2023-05-17T05:05:56;99660.00;;;9.20
68012;BMP180;54794;48.348;7.878;2023-05-17T05:08:27;99668.00;;;9.30
68012;BMP180;54794;48.348;7.878;2023-05-17T05:10:54;99662.00;;;9.50
68012;BMP180;54794;48.348;7.878;2023-05-17T05:13:21;99668.00;;;9.40
68012;BMP180;54794;48.348;7.878;2023-05-17T05:15:49;99678.00;;;9.50
68012;BMP180;54794;48.348;7.878;2023-05-17T05:18:17;99674.00;;;9.50
68012;BMP180;54794;48.348;7.878;2023-05-17T05:20:47;99677.00;;;9.70
68012;BMP180;54794;48.348;7.878;2023-05-17T05:23:14;99677.00;;;9.60
68012;BMP180;54794;48.348;7.878;2023-05-17T05:25:43;99677.00;;;9.60
68012;BMP180;54794;48.348;7.878;2023-05-17T05:28:10;99686.00;;;9.50
68012;BMP180;54794;48.348;7.878;2023-05-17T05:30:38;99688.00;;;9.60
68012;BMP180;54794;48.348;7.878;2023-05-17T05:33:06;99692.00;;;9.90
68012;BMP180;54794;48.348;7.878;2023-05-17T05:35:34;99684.00;;;9.80
68012;BMP180;54794;48.348;7.878;2023-05-17T05:38:02;99684.00;;;9.80
68012;BMP180;54794;48.348;7.878;2023-05-17T05:40:30;99688.00;;;9.80
68012;BMP180;54794;48.348;7.878;2023-05-17T05:42:58;99694.00;;;9.90
68012;BMP180;54794;48.348;7.878;2023-05-17T05:45:25;99689.00;;;10.00
68012;BMP180;54794;48.348;7.878;2023-05-17T05:47:52;99706.00;;;9.90
68012;BMP180;54794;48.348;7.878;2023-05-17T05:50:19;99695.00;;;10.10
68012;BMP180;54794;48.348;7.878;2023-05-17T05:52:47;99687.00;;;10.20
68012;BMP180;54794;48.348;7.878;2023-05-17T05:55:17;99701.00;;;10.00
68012;BMP180;54794;48.348;7.878;2023-05-17T05:57:47;99696.00;;;10.20
68012;BMP180;54794;48.348;7.878;2023-05-17T06:00:15;99702.00;;;10.40
68012;BMP180;54794;48.348;7.878;2023-05-17T06:02:43;99701.00;;;10.40
68012;BMP180;54794;48.348;7.878;2023-05-17T06:05:13;99699.00;;;10.60
68012;BMP180;54794;48.348;7.878;2023-05-17T06:10:52;99702.00;;;10.80
68012;BMP180;54794;48.348;7.878;2023-05-17T06:13:24;99703.00;;;10.70
68012;BMP180;54794;48.348;7.878;2023-05-17T06:16:01;99707.00;;;10.70
68012;BMP180;54794;48.348;7.878;2023-05-17T06:18:29;99699.00;;;10.60
68012;BMP180;54794;48.348;7.878;2023-05-17T06:21:12;99705.00;;;10.70
68012;BMP180;54794;48.348;7.878;2023-05-17T06:23:41;99708.00;;;11.00
68012;BMP180;54794;48.348;7.878;2023-05-17T06:34:28;99721.00;;;11.20
68012;BMP180;54794;48.348;7.878;2023-05-17T06:37:00;99711.00;;;11.10
68012;BMP180;54794;48.348;7.878;2023-05-17T06:39:27;99715.00;;;11.10
68012;BMP180;54794;48.348;7.878;2023-05-17T06:41:54;99703.00;;;11.40
68012;BMP180;54794;48.348;7.878;2023-05-17T06:44:24;99716.00;;;11.40
68012;BMP180;54794;48.348;7.878;2023-05-17T06:46:51;99717.00;;;11.40
68012;BMP180;54794;48.348;7.878;2023-05-17T06:49:40;99708.00;;;11.60
68012;BMP180;54794;48.348;7.878;2023-05-17T06:52:09;99710.00;;;11.40
68012;BMP180;54794;48.348;7.878;2023-05-17T06:54:46;99727.00;;;11.60
68012;BMP180;54794;48.348;7.878;2023-05-17T06:57:21;99701.00;;;11.90
68012;BMP180;54794;48.348;7.878;2023-05-17T07:00:05;99720.00;;;11.60
68012;BMP180;54794;48.348;7.878;2023-05-17T07:02:38;99715.00;;;11.80
68012;BMP180;54794;48.348;7.878;2023-05-17T07:05:54;99724.00;;;11.90
68012;BMP180;54794;48.348;7.878;2023-05-17T07:08:20;99716.00;;;12.00
68012;BMP180;54794;48.348;7.878;2023-05-17T07:10:51;99719.00;;;12.20
68012;BMP180;54794;48.348;7.878;2023-05-17T07:13:20;99723.00;;;12.40
68012;BMP180;54794;48.348;7.878;2023-05-17T07:16:11;99718.00;;;12.80
68012;BMP180;54794;48.348;7.878;2023-05-17T07:18:44;99732.00;;;12.80
68012;BMP180;54794;48.348;7.878;2023-05-17T07:21:22;99732.00;;;12.70
68012;BMP180;54794;48.348;7.878;2023-05-17T07:24:12;99725.00;;;12.90
68012;BMP180;54794;48.348;7.878;2023-05-17T07:26:39;99727.00;;;13.00
68012;BMP180;54794;48.348;7.878;2023-05-17T07:29:06;99726.00;;;13.00
68012;BMP180;54794;48.348;7.878;2023-05-17T07:31:33;99733.00;;;12.80
68012;BMP180;54794;48.348;7.878;2023-05-17T07:34:00;99734.00;;;12.90
68012;BMP180;54794;48.348;7.878;2023-05-17T07:36:28;99728.00;;;13.10
68012;BMP180;54794;48.348;7.878;2023-05-17T07:38:57;99726.00;;;13.40
68012;BMP180;54794;48.348;7.878;2023-05-17T07:41:24;99734.00;;;13.40
68012;BMP180;54794;48.348;7.878;2023-05-17T07:43:51;99731.00;;;13.50
68012;BMP180;54794;48.348;7.878;2023-05-17T07:46:18;99733.00;;;13.70
68012;BMP180;54794;48.348;7.878;2023-05-17T07:48:47;99726.00;;;13.80
68012;BMP180;54794;48.348;7.878;2023-05-17T07:51:14;99729.00;;;14.00
68012;BMP180;54794;48.348;7.878;2023-05-17T07:53:47;99722.00;;;13.80
68012;BMP180;54794;48.348;7.878;2023-05-17T07:56:17;99735.00;;;13.70
68012;BMP180;54794;48.348;7.878;2023-05-17T07:58:47;99724.00;;;14.00
68012;BMP180;54794;48.348;7.878;2023-05-17T08:01:14;99730.00;;;14.10
68012;BMP180;54794;48.348;7.878;2023-05-17T08:03:43;99728.00;;;14.10
68012;BMP180;54794;48.348;7.878;2023-05-17T08:06:15;99721.00;;;14.10
68012;BMP180;54794;48.348;7.878;2023-05-17T08:08:43;99714.00;;;14.20
68012;BMP180;54794;48.348;7.878;2023-05-17T08:11:23;99731.00;;;14.30
68012;BMP180;54794;48.348;7.878;2023-05-17T08:13:51;99719.00;;;14.00
68012;BMP180;54794;48.348;7.878;2023-05-17T08:16:18;99727.00;;;13.60
68012;BMP180;54794;48.348;7.878;2023-05-17T08:18:46;99720.00;;;13.20
68012;BMP180;54794;48.348;7.878;2023-05-17T08:21:14;99721.00;;;13.70
68012;BMP180;54794;48.348;7.878;2023-05-17T08:23:43;99726.00;;;13.70
68012;BMP180;54794;48.348;7.878;2023-05-17T08:26:10;99723.00;;;13.60
68012;BMP180;54794;48.348;7.878;2023-05-17T08:28:46;99724.00;;;13.60
68012;BMP180;54794;48.348;7.878;2023-05-17T08:31:14;99730.00;;;13.80
68012;BMP180;54794;48.348;7.878;2023-05-17T08:33:49;99723.00;;;13.70
68012;BMP180;54794;48.348;7.878;2023-05-17T08:36:22;99732.00;;;13.60
68012;BMP180;54794;48.348;7.878;2023-05-17T08:38:49;99731.00;;;13.60
68012;BMP180;54794;48.348;7.878;2023-05-17T08:41:23;99723.00;;;13.70
68012;BMP180;54794;48.348;7.878;2023-05-17T08:44:04;99723.00;;;13.70
68012;BMP180;54794;48.348;7.878;2023-05-17T08:46:49;99726.00;;;13.50
68012;BMP180;54794;48.348;7.878;2023-05-17T08:49:26;99722.00;;;13.50
68012;BMP180;54794;48.348;7.878;2023-05-17T08:52:31;99718.00;;;13.90
68012;BMP180;54794;48.348;7.878;2023-05-17T08:55:12;99720.00;;;13.90
68012;BMP180;54794;48.348;7.878;2023-05-17T08:57:43;99719.00;;;13.40
68012;BMP180;54794;48.348;7.878;2023-05-17T09:00:18;99712.00;;;14.20
68012;BMP180;54794;48.348;7.878;2023-05-17T09:03:02;99710.00;;;14.80
68012;BMP180;54794;48.348;7.878;2023-05-17T09:05:40;99723.00;;;14.30
68012;BMP180;54794;48.348;7.878;2023-05-17T09:08:14;99718.00;;;14.50
68012;BMP180;54794;48.348;7.878;2023-05-17T09:10:44;99726.00;;;14.50
68012;BMP180;54794;48.348;7.878;2023-05-17T09:13:17;99716.00;;;14.10
68012;BMP180;54794;48.348;7.878;2023-05-17T09:15:50;99721.00;;;14.40
68012;BMP180;54794;48.348;7.878;2023-05-17T09:18:31;99724.00;;;14.00
68012;BMP180;54794;48.348;7.878;2023-05-17T09:21:05;99727.00;;;13.80
68012;BMP180;54794;48.348;7.878;2023-05-17T09:23:37;99721.00;;;13.70
68012;BMP180;54794;48.348;7.878;2023-05-17T09:26:07;99729.00;;;13.80
68012;BMP180;54794;48.348;7.878;2023-05-17T09:28:42;99721.00;;;13.90
68012;BMP180;54794;48.348;7.878;2023-05-17T09:31:10;99736.00;;;13.90
68012;BMP180;54794;48.348;7.878;2023-05-17T09:33:48;99723.00;;;13.70
68012;BMP180;54794;48.348;7.878;2023-05-17T09:36:22;99733.00;;;13.90
68012;BMP180;54794;48.348;7.878;2023-05-17T09:38:55;99721.00;;;14.00
68012;BMP180;54794;48.348;7.878;2023-05-17T09:41:27;99728.00;;;14.30
68012;BMP180;54794;48.348;7.878;2023-05-17T09:44:14;99723.00;;;14.50
68012;BMP180;54794;48.348;7.878;2023-05-17T09:46:45;99727.00;;;14.40
68012;BMP180;54794;48.348;7.878;2023-05-17T09:49:17;99728.00;;;14.50
68012;BMP180;54794;48.348;7.878;2023-05-17T09:51:47;99730.00;;;14.40
68012;BMP180;54794;48.348;7.878;2023-05-17T09:54:15;99739.00;;;14.20
68012;BMP180;54794;48.348;7.878;2023-05-17T09:56:46;99741.00;;;14.20
68012;BMP180;54794;48.348;7.878;2023-05-17T09:59:30;99733.00;;;14.70
68012;BMP180;54794;48.348;7.878;2023-05-17T10:02:03;99735.00;;;15.40
68012;BMP180;54794;48.348;7.878;2023-05-17T10:04:35;99718.00;;;14.70
68012;BMP180;54794;48.348;7.878;2023-05-17T10:07:04;99729.00;;;14.70
68012;BMP180;54794;48.348;7.878;2023-05-17T10:09:31;99731.00;;;14.80
68012;BMP180;54794;48.348;7.878;2023-05-17T10:12:02;99718.00;;;14.60
68012;BMP180;54794;48.348;7.878;2023-05-17T10:14:33;99721.00;;;14.30
68012;BMP180;54794;48.348;7.878;2023-05-17T10:17:02;99717.00;;;14.70
68012;BMP180;54794;48.348;7.878;2023-05-17T10:19:29;99715.00;;;14.70
68012;BMP180;54794;48.348;7.878;2023-05-17T10:21:58;99717.00;;;14.80
68012;BMP180;54794;48.348;7.878;2023-05-17T10:24:48;99715.00;;;14.70
68012;BMP180;54794;48.348;7.878;2023-05-17T10:27:16;99720.00;;;14.70
68012;BMP180;54794;48.348;7.878;2023-05-17T10:29:43;99712.00;;;14.70
68012;BMP180;54794;48.348;7.878;2023-05-17T10:32:14;99714.00;;;14.80
68012;BMP180;54794;48.348;7.878;2023-05-17T10:34:43;99718.00;;;15.20
68012;BMP180;54794;48.348;7.878;2023-05-17T10:37:24;99704.00;;;15.70
68012;BMP180;54794;48.348;7.878;2023-05-17T10:39:51;99703.00;;;14.80
68012;BMP180;54794;48.348;7.878;2023-05-17T10:42:30;99700.00;;;15.20
68012;BMP180;54794;48.348;7.878;2023-05-17T10:45:05;99708.00;;;15.30
68012;BMP180;54794;48.348;7.878;2023-05-17T10:47:47;99707.00;;;15.20
68012;BMP180;54794;48.348;7.878;2023-05-17T10:50:25;99711.00;;;15.50
68012;BMP180;54794;48.348;7.878;2023-05-17T10:52:58;99696.00;;;15.60
68012;BMP180;54794;48.348;7.878;2023-05-17T10:55:43;99695.00;;;15.70
68012;BMP180;54794;48.348;7.878;2023-05-17T10:58:29;99713.00;;;15.90
68012;BMP180;54794;48.348;7.878;2023-05-17T11:00:58;99696.00;;;16.60
68012;BMP180;54794;48.348;7.878;2023-05-17T11:03:30;99691.00;;;16.20
68012;BMP180;54794;48.348;7.878;2023-05-17T11:09:14;99710.00;;;16.20
68012;BMP180;54794;48.348;7.878;2023-05-17T11:12:10;99701.00;;;15.90
68012;BMP180;54794;48.348;7.878;2023-05-17T11:17:13;99700.00;;;15.90
68012;BMP180;54794;48.348;7.878;2023-05-17T11:20:06;99701.00;;;15.70
68012;BMP180;54794;48.348;7.878;2023-05-17T11:22:54;99715.00;;;15.50
68012;BMP180;54794;48.348;7.878;2023-05-17T11:25:38;99699.00;;;15.80
68012;BMP180;54794;48.348;7.878;2023-05-17T11:28:19;99696.00;;;15.80
68012;BMP180;54794;48.348;7.878;2023-05-17T11:30:48;99695.00;;;15.90
68012;BMP180;54794;48.348;7.878;2023-05-17T11:33:38;99705.00;;;16.00
68012;BMP180;54794;48.348;7.878;2023-05-17T11:36:18;99699.00;;;17.00
68012;BMP180;54794;48.348;7.878;2023-05-17T11:39:08;99701.00;;;17.30
68012;BMP180;54794;48.348;7.878;2023-05-17T11:41:50;99694.00;;;16.50
68012;BMP180;54794;48.348;7.878;2023-05-17T11:44:32;99685.00;;;16.40
68012;BMP180;54794;48.348;7.878;2023-05-17T11:47:07;99704.00;;;16.00
68012;BMP180;54794;48.348;7.878;2023-05-17T11:50:25;99698.00;;;15.70
68012;BMP180;54794;48.348;7.878;2023-05-17T11:52:53;99691.00;;;15.80
68012;BMP180;54794;48.348;7.878;2023-05-17T11:55:28;99697.00;;;15.90
68012;BMP180;54794;48.348;7.878;2023-05-17T11:58:01;99700.00;;;15.90
68012;BMP180;54794;48.348;7.878;2023-05-17T12:00:38;99691.00;;;16.20
68012;BMP180;54794;48.348;7.878;2023-05-17T12:03:29;99686.00;;;15.80
68012;BMP180;54794;48.348;7.878;2023-05-17T12:06:16;99681.00;;;16.20
68012;BMP180;54794;48.348;7.878;2023-05-17T12:08:50;99683.00;;;16.60
68012;BMP180;54794;48.348;7.878;2023-05-17T12:11:28;99686.00;;;17.00
68012;BMP180;54794;48.348;7.878;2023-05-17T12:14:03;99683.00;;;16.50
68012;BMP180;54794;48.348;7.878;2023-05-17T12:16:51;99679.00;;;16.10
68012;BMP180;54794;48.348;7.878;2023-05-17T12:19:27;99686.00;;;15.70
68012;BMP180;54794;48.348;7.878;2023-05-17T12:22:11;99690.00;;;16.10
68012;BMP180;54794;48.348;7.878;2023-05-17T12:24:49;99677.00;;;16.80
68012;BMP180;54794;48.348;7.878;2023-05-17T12:27:45;99687.00;;;16.20
68012;BMP180;54794;48.348;7.878;2023-05-17T12:30:21;99684.00;;;16.70
68012;BMP180;54794;48.348;7.878;2023-05-17T12:32:59;99686.00;;;16.80
68012;BMP180;54794;48.348;7.878;2023-05-17T12:35:31;99680.00;;;18.20
68012;BMP180;54794;48.348;7.878;2023-05-17T12:37:59;99672.00;;;18.20
68012;BMP180;54794;48.348;7.878;2023-05-17T12:40:29;99675.00;;;17.50
68012;BMP180;54794;48.348;7.878;2023-05-17T12:43:02;99669.00;;;17.90
68012;BMP180;54794;48.348;7.878;2023-05-17T12:45:29;99671.00;;;17.00
68012;BMP180;54794;48.348;7.878;2023-05-17T12:48:00;99667.00;;;17.00
68012;BMP180;54794;48.348;7.878;2023-05-17T12:50:32;99663.00;;;17.10
68012;BMP180;54794;48.348;7.878;2023-05-17T12:53:07;99663.00;;;17.50
68012;BMP180;54794;48.348;7.878;2023-05-17T12:55:37;99672.00;;;17.10
68012;BMP180;54794;48.348;7.878;2023-05-17T12:58:09;99666.00;;;17.10
68012;BMP180;54794;48.348;7.878;2023-05-17T13:00:39;99655.00;;;18.00
68012;BMP180;54794;48.348;7.878;2023-05-17T13:03:18;99659.00;;;18.20
68012;BMP180;54794;48.348;7.878;2023-05-17T13:06:04;99657.00;;;17.50
68012;BMP180;54794;48.348;7.878;2023-05-17T13:08:32;99644.00;;;17.90
68012;BMP180;54794;48.348;7.878;2023-05-17T13:11:36;99652.00;;;18.00
68012;BMP180;54794;48.348;7.878;2023-05-17T13:14:38;99646.00;;;18.60
68012;BMP180;54794;48.348;7.878;2023-05-17T13:17:35;99660.00;;;19.00
68012;BMP180;54794;48.348;7.878;2023-05-17T13:20:11;99651.00;;;18.60
68012;BMP180;54794;48.348;7.878;2023-05-17T13:23:22;99661.00;;;17.60
68012;BMP180;54794;48.348;7.878;2023-05-17T13:25:55;99658.00;;;17.30
68012;BMP180;54794;48.348;7.878;2023-05-17T13:28:29;99654.00;;;17.50
68012;BMP180;54794;48.348;7.878;2023-05-17T13:31:24;99657.00;;;17.10
68012;BMP180;54794;48.348;7.878;2023-05-17T13:33:51;99655.00;;;17.10
68012;BMP180;54794;48.348;7.878;2023-05-17T13:36:25;99654.00;;;17.00
68012;BMP180;54794;48.348;7.878;2023-05-17T13:38:54;99650.00;;;16.90
68012;BMP180;54794;48.348;7.878;2023-05-17T13:41:27;99666.00;;;17.70
68012;BMP180;54794;48.348;7.878;2023-05-17T13:44:03;99666.00;;;17.10
68012;BMP180;54794;48.348;7.878;2023-05-17T13:50:12;99661.00;;;16.50
68012;BMP180;54794;48.348;7.878;2023-05-17T13:53:02;99659.00;;;17.30
68012;BMP180;54794;48.348;7.878;2023-05-17T13:55:31;99661.00;;;17.30
68012;BMP180;54794;48.348;7.878;2023-05-17T13:58:14;99663.00;;;17.70
68012;BMP180;54794;48.348;7.878;2023-05-17T14:01:02;99662.00;;;18.10
68012;BMP180;54794;48.348;7.878;2023-05-17T14:03:30;99648.00;;;18.20
68012;BMP180;54794;48.348;7.878;2023-05-17T14:10:16;99651.00;;;18.00
68012;BMP180;54794;48.348;7.878;2023-05-17T14:12:46;99646.00;;;18.50
68012;BMP180;54794;48.348;7.878;2023-05-17T14:15:19;99639.00;;;18.10
68012;BMP180;54794;48.348;7.878;2023-05-17T14:17:46;99636.00;;;18.30
68012;BMP180;54794;48.348;7.878;2023-05-17T14:20:39;99633.00;;;18.40
68012;BMP180;54794;48.348;7.878;2023-05-17T14:38:29;99623.00;;;18.40
68012;BMP180;54794;48.348;7.878;2023-05-17T14:41:31;99627.00;;;18.20
68012;BMP180;54794;48.348;7.878;2023-05-17T14:43:58;99623.00;;;18.20
68012;BMP180;54794;48.348;7.878;2023-05-17T14:46:32;99622.00;;;18.60
68012;BMP180;54794;48.348;7.878;2023-05-17T14:49:13;99621.00;;;18.70
68012;BMP180;54794;48.348;7.878;2023-05-17T14:51:40;99622.00;;;18.70
68012;BMP180;54794;48.348;7.878;2023-05-17T14:54:42;99626.00;;;18.80
68012;BMP180;54794;48.348;7.878;2023-05-17T14:57:21;99613.00;;;19.00
68012;BMP180;54794;48.348;7.878;2023-05-17T15:08:06;99613.00;;;18.80
68012;BMP180;54794;48.348;7.878;2023-05-17T15:10:41;99623.00;;;18.90
68012;BMP180;54794;48.348;7.878;2023-05-17T15:21:04;99607.00;;;19.30
68012;BMP180;54794;48.348;7.878;2023-05-17T15:23:47;99616.00;;;18.60
68012;BMP180;54794;48.348;7.878;2023-05-17T15:26:23;99621.00;;;18.90
68012;BMP180;54794;48.348;7.878;2023-05-17T15:29:02;99614.00;;;19.00
68012;BMP180;54794;48.348;7.878;2023-05-17T15:34:25;99609.00;;;19.00
68012;BMP180;54794;48.348;7.878;2023-05-17T15:36:55;99610.00;;;19.40
68012;BMP180;54794;48.348;7.878;2023-05-17T15:39:22;99610.00;;;18.90
68012;BMP180;54794;48.348;7.878;2023-05-17T15:50:11;99609.00;;;18.70
68012;BMP180;54794;48.348;7.878;2023-05-17T15:52:38;99614.00;;;18.20
68012;BMP180;54794;48.348;7.878;2023-05-17T15:55:05;99625.00;;;18.40
68012;BMP180;54794;48.348;7.878;2023-05-17T15:57:39;99604.00;;;18.50
68012;BMP180;54794;48.348;7.878;2023-05-17T16:00:14;99618.00;;;18.60
68012;BMP180;54794;48.348;7.878;2023-05-17T16:02:41;99614.00;;;17.90